createdAt,value
2017-11-27T00:02:04.354Z,4.97
2017-11-27T00:04:31.863Z,14.67
2017-11-27T00:06:59.364Z,6.07
2017-11-27T00:09:26.837Z,14.40
2017-11-27T00:11:54.289Z,12.27
2017-11-27T00:14:21.792Z,6.80
2017-11-27T00:16:49.256Z,7.50
2017-11-27T00:19:16.744Z,5.23
2017-11-27T00:21:44.179Z,9.47
2017-11-27T00:24:11.661Z,5.33
2017-11-27T00:26:39.166Z,5.70
2017-11-27T00:29:06.633Z,7.83
2017-11-27T00:31:34.151Z,10.60
2017-11-27T00:34:02.355Z,6.73
2017-11-27T00:36:30.611Z,4.77
2017-11-27T00:38:58.110Z,9.50
2017-11-27T00:41:25.583Z,9.17
2017-11-27T00:43:53.035Z,8.60
2017-11-27T00:46:20.551Z,8.00
2017-11-27T00:48:48.039Z,4.90
2017-11-27T00:51:16.199Z,5.27
2017-11-27T00:53:43.671Z,10.53
2017-11-27T00:56:11.196Z,5.47
2017-11-27T00:58:38.685Z,5.17
2017-11-27T01:01:06.163Z,6.63
2017-11-27T01:03:34.454Z,5.77
2017-11-27T01:06:03.599Z,10.03
2017-11-27T01:08:31.255Z,4.23
2017-11-27T01:10:58.726Z,5.50
2017-11-27T01:13:26.220Z,10.10
2017-11-27T01:15:53.670Z,4.97
2017-11-27T01:18:21.160Z,5.70
2017-11-27T01:20:48.603Z,6.23
2017-11-27T01:23:16.081Z,5.73
2017-11-27T01:25:44.410Z,5.30
2017-11-27T01:28:11.918Z,11.70
2017-11-27T01:30:39.361Z,14.13
2017-11-27T01:33:06.835Z,7.87
2017-11-27T01:35:34.323Z,8.33
2017-11-27T01:38:02.602Z,11.13
2017-11-27T01:40:30.099Z,5.97
2017-11-27T01:42:57.583Z,11.50
2017-11-27T01:45:25.118Z,7.20
2017-11-27T01:47:52.555Z,7.77
2017-11-27T01:50:20.806Z,7.20
2017-11-27T01:52:48.350Z,16.73
2017-11-27T01:55:15.826Z,7.00
2017-11-27T01:57:43.264Z,8.57
2017-11-27T02:00:10.755Z,5.87
2017-11-27T02:02:38.996Z,5.33
2017-11-27T02:05:06.451Z,11.03
2017-11-27T02:07:33.945Z,5.33
2017-11-27T02:10:01.410Z,10.43
2017-11-27T02:12:28.896Z,10.90
2017-11-27T02:14:56.328Z,5.20
2017-11-27T02:17:23.813Z,5.00
2017-11-27T02:19:51.296Z,10.07
2017-11-27T02:22:18.795Z,11.27
2017-11-27T02:24:46.265Z,5.50
2017-11-27T02:27:13.737Z,4.97
2017-11-27T02:29:41.305Z,8.07
2017-11-27T02:32:08.780Z,15.80
2017-11-27T02:34:36.237Z,12.70
2017-11-27T02:37:03.733Z,6.90
2017-11-27T02:39:31.290Z,8.07
2017-11-27T02:41:58.775Z,7.90
2017-11-27T02:44:26.195Z,6.10
2017-11-27T02:46:53.663Z,8.20
2017-11-27T02:49:21.143Z,11.60
2017-11-27T02:51:48.685Z,6.83
2017-11-27T02:54:16.139Z,6.53
2017-11-27T02:56:43.611Z,5.93
2017-11-27T02:59:11.056Z,7.50
2017-11-27T03:01:38.489Z,5.57
2017-11-27T03:04:05.933Z,5.73
2017-11-27T03:06:34.200Z,5.43
2017-11-27T03:09:01.670Z,7.60
2017-11-27T03:11:29.147Z,5.93
2017-11-27T03:13:57.361Z,4.77
2017-11-27T03:16:25.590Z,8.83
2017-11-27T03:18:53.815Z,5.17
2017-11-27T03:21:21.268Z,7.57
2017-11-27T03:23:48.747Z,8.40
2017-11-27T03:26:16.215Z,6.83
2017-11-27T03:28:43.668Z,5.73
2017-11-27T03:31:11.152Z,9.53
2017-11-27T03:33:38.608Z,4.90
2017-11-27T03:36:06.086Z,8.20
2017-11-27T03:38:33.545Z,5.03
2017-11-27T03:41:01.088Z,6.63
2017-11-27T03:43:29.299Z,6.23
2017-11-27T03:45:56.759Z,5.27
2017-11-27T03:48:24.220Z,10.53
2017-11-27T03:50:51.695Z,10.47
2017-11-27T03:53:19.222Z,5.77
2017-11-27T03:55:46.707Z,5.27
2017-11-27T03:58:14.194Z,4.63
2017-11-27T04:00:41.629Z,7.83
2017-11-27T04:03:09.103Z,10.40
2017-11-27T04:05:36.611Z,8.17
2017-11-27T04:08:04.073Z,9.60
2017-11-27T04:10:31.563Z,6.83
2017-11-27T04:12:59.038Z,5.10
2017-11-27T04:15:26.526Z,5.70
2017-11-27T04:17:53.999Z,10.80
2017-11-27T04:20:21.437Z,5.40
2017-11-27T04:22:48.895Z,7.00
2017-11-27T04:25:16.382Z,11.10
2017-11-27T04:27:43.829Z,13.67
2017-11-27T04:30:11.287Z,11.27
2017-11-27T04:32:38.762Z,7.13
2017-11-27T04:35:06.981Z,17.53
2017-11-27T04:37:34.421Z,7.67
2017-11-27T04:40:02.660Z,10.63
2017-11-27T04:42:30.143Z,6.50
2017-11-27T04:44:57.598Z,10.80
2017-11-27T04:47:25.128Z,14.90
2017-11-27T04:49:53.340Z,10.00
2017-11-27T04:52:20.800Z,8.50
2017-11-27T04:54:48.241Z,11.37
2017-11-27T04:57:15.733Z,11.97
2017-11-27T04:59:43.982Z,19.17
2017-11-27T05:02:11.456Z,7.37
2017-11-27T05:04:38.952Z,10.60
2017-11-27T05:07:06.414Z,11.87
2017-11-27T05:09:34.701Z,14.60
2017-11-27T05:12:02.906Z,8.23
2017-11-27T05:14:31.078Z,11.00
2017-11-27T05:16:58.561Z,12.90
2017-11-27T05:19:26.028Z,8.30
2017-11-27T05:21:53.495Z,5.80
2017-11-27T05:24:21.018Z,5.97
2017-11-27T05:26:48.437Z,5.30
2017-11-27T05:29:15.916Z,7.70
2017-11-27T05:31:43.362Z,17.33
2017-11-27T05:34:11.063Z,6.70
2017-11-27T05:36:39.296Z,10.93
2017-11-27T05:39:06.752Z,13.70
2017-11-27T05:41:34.257Z,8.90
2017-11-27T05:44:01.808Z,5.87
2017-11-27T05:46:29.297Z,6.03
2017-11-27T05:48:57.516Z,8.37
2017-11-27T05:51:24.980Z,8.50
2017-11-27T05:53:52.451Z,9.33
2017-11-27T05:56:19.966Z,5.53
2017-11-27T05:58:48.213Z,8.07
2017-11-27T06:01:15.668Z,6.00
2017-11-27T06:03:43.131Z,8.20
2017-11-27T06:06:10.637Z,6.23
2017-11-27T06:08:38.887Z,8.83
2017-11-27T06:11:06.385Z,10.40
2017-11-27T06:13:33.800Z,4.80
2017-11-27T06:16:01.288Z,5.47
2017-11-27T06:18:29.540Z,10.17
2017-11-27T06:20:56.983Z,4.73
2017-11-27T06:23:24.470Z,3.83
2017-11-27T06:25:51.916Z,13.30
2017-11-27T06:28:19.366Z,4.20
2017-11-27T06:30:47.186Z,6.00
2017-11-27T06:33:14.623Z,14.30
2017-11-27T06:35:42.078Z,7.30
2017-11-27T06:38:09.538Z,5.93
2017-11-27T06:40:37.033Z,5.53
2017-11-27T06:43:05.332Z,11.47
2017-11-27T06:45:33.610Z,5.70
2017-11-27T06:48:01.810Z,4.77
2017-11-27T06:50:29.297Z,3.40
2017-11-27T06:52:56.734Z,3.53
2017-11-27T06:55:24.946Z,12.33
2017-11-27T06:57:52.454Z,4.37
2017-11-27T07:00:20.666Z,3.60
2017-11-27T07:02:48.144Z,4.30
2017-11-27T07:05:15.656Z,11.63
2017-11-27T07:07:43.153Z,6.70
2017-11-27T07:10:10.664Z,3.07
2017-11-27T07:12:38.086Z,2.90
2017-11-27T07:15:05.535Z,3.03
2017-11-27T07:17:33.044Z,11.20
2017-11-27T07:20:00.528Z,5.80
2017-11-27T07:22:28.864Z,2.23
2017-11-27T07:24:56.288Z,2.17
2017-11-27T07:27:23.795Z,8.80
2017-11-27T07:29:51.223Z,3.80
2017-11-27T07:32:19.100Z,2.40
2017-11-27T07:34:46.520Z,2.20
2017-11-27T07:37:14.765Z,10.33
2017-11-27T07:39:42.251Z,4.17
2017-11-27T07:42:09.709Z,2.40
2017-11-27T07:44:37.202Z,2.87
2017-11-27T07:47:04.693Z,6.50
2017-11-27T07:49:32.880Z,4.90
2017-11-27T07:52:00.398Z,3.87
2017-11-27T07:54:28.624Z,5.90
2017-11-27T07:56:56.217Z,6.60
2017-11-27T07:59:23.755Z,2.83
2017-11-27T08:01:51.226Z,8.57
2017-11-27T08:04:18.698Z,6.83
2017-11-27T08:06:46.156Z,2.50
2017-11-27T08:09:13.632Z,2.60
2017-11-27T08:11:41.165Z,10.20
2017-11-27T08:14:08.786Z,12.03
2017-11-27T08:16:36.232Z,2.30
2017-11-27T08:19:03.746Z,3.47
2017-11-27T08:21:31.185Z,2.50
2017-11-27T08:23:59.428Z,9.23
2017-11-27T08:26:26.877Z,2.37
2017-11-27T08:28:54.436Z,6.23
2017-11-27T08:31:21.903Z,2.10
2017-11-27T08:33:49.503Z,1.87
2017-11-27T08:36:16.940Z,1.77
2017-11-27T08:38:44.467Z,1.67
2017-11-27T08:41:12.137Z,1.83
2017-11-27T08:43:40.525Z,1.60
2017-11-27T08:46:08.682Z,2.30
2017-11-27T08:48:36.172Z,2.43
2017-11-27T08:51:03.668Z,1.43
2017-11-27T08:53:31.187Z,3.27
2017-11-27T08:55:58.672Z,4.93
2017-11-27T08:58:26.137Z,1.83
2017-11-27T09:00:53.658Z,4.77
2017-11-27T09:03:21.313Z,1.93
2017-11-27T09:05:48.706Z,1.80
2017-11-27T09:08:16.216Z,1.70
2017-11-27T09:10:43.701Z,2.30
2017-11-27T09:13:11.292Z,4.03
2017-11-27T09:15:39.747Z,2.00
2017-11-27T09:18:07.282Z,1.70
2017-11-27T09:20:34.773Z,4.77
2017-11-27T09:23:02.292Z,1.80
2017-11-27T09:25:30.561Z,2.47
2017-11-27T09:27:58.060Z,1.47
2017-11-27T09:30:26.301Z,1.87
2017-11-27T09:32:55.573Z,1.60
2017-11-27T09:35:23.009Z,2.90
2017-11-27T09:37:50.454Z,2.23
2017-11-27T09:40:17.988Z,1.90
2017-11-27T09:42:45.414Z,1.57
2017-11-27T09:45:12.879Z,2.20
2017-11-27T09:47:40.359Z,1.70
2017-11-27T09:50:07.895Z,1.70
2017-11-27T09:52:35.553Z,1.70
2017-11-27T09:55:03.728Z,4.50
2017-11-27T09:57:31.208Z,2.30
2017-11-27T09:59:58.678Z,1.90
2017-11-27T10:02:26.149Z,1.50
2017-11-27T10:04:53.619Z,1.80
2017-11-27T10:07:21.942Z,2.17
2017-11-27T10:09:50.195Z,1.93
2017-11-27T10:12:18.419Z,1.60
2017-11-27T10:14:45.921Z,1.67
2017-11-27T10:17:13.421Z,1.90
2017-11-27T10:19:40.940Z,1.57
2017-11-27T10:22:08.356Z,1.67
2017-11-27T10:24:35.860Z,1.90
2017-11-27T10:27:03.310Z,2.30
2017-11-27T10:29:30.859Z,1.77
2017-11-27T10:31:58.330Z,1.50
2017-11-27T10:34:25.903Z,2.00
2017-11-27T10:36:53.362Z,2.20
2017-11-27T10:39:20.920Z,1.40
2017-11-27T10:41:48.360Z,1.47
2017-11-27T10:44:15.872Z,1.30
2017-11-27T10:46:43.307Z,2.17
2017-11-27T10:49:10.854Z,1.90
2017-11-27T10:51:39.055Z,2.27
2017-11-27T10:54:06.535Z,2.20
2017-11-27T10:56:34.020Z,1.77
2017-11-27T10:59:02.283Z,1.80
2017-11-27T11:01:30.511Z,1.60
2017-11-27T11:03:58.022Z,2.23
2017-11-27T11:06:25.490Z,3.43
2017-11-27T11:08:53.315Z,1.50
2017-11-27T11:11:21.503Z,3.40
2017-11-27T11:13:49.005Z,1.60
2017-11-27T11:16:16.499Z,1.60
2017-11-27T11:18:44.023Z,1.60
2017-11-27T11:21:11.466Z,2.20
2017-11-27T11:23:39.347Z,1.67
2017-11-27T11:26:06.782Z,1.47
2017-11-27T11:28:34.352Z,1.83
2017-11-27T11:31:01.792Z,1.40
2017-11-27T11:33:29.315Z,1.80
2017-11-27T11:35:56.807Z,1.53
2017-11-27T11:38:24.222Z,2.63
2017-11-27T11:40:51.763Z,2.80
2017-11-27T11:43:20.300Z,1.73
2017-11-27T11:45:47.816Z,1.20
2017-11-27T11:48:16.078Z,0.93
2017-11-27T11:50:43.540Z,1.70
2017-11-27T11:53:11.106Z,1.20
2017-11-27T11:55:38.524Z,1.50
2017-11-27T11:58:06.031Z,1.60
2017-11-27T12:00:33.587Z,0.87
2017-11-27T12:03:03.572Z,0.90
2017-11-27T12:05:31.221Z,1.20
2017-11-27T12:07:58.844Z,1.03
2017-11-27T12:10:26.265Z,5.87
2017-11-27T12:12:53.865Z,0.90
2017-11-27T12:15:21.298Z,1.07
2017-11-27T12:17:49.522Z,1.00
2017-11-27T12:20:17.191Z,0.90
2017-11-27T12:22:44.828Z,1.30
2017-11-27T12:25:12.343Z,1.10
2017-11-27T12:27:39.921Z,1.10
2017-11-27T12:30:07.376Z,0.80
2017-11-27T12:32:34.946Z,1.17
2017-11-27T12:35:02.413Z,1.00
2017-11-27T12:37:29.985Z,0.70
2017-11-27T12:39:57.473Z,1.97
2017-11-27T12:42:25.717Z,1.60
2017-11-27T12:44:53.187Z,2.37
2017-11-27T12:47:20.632Z,3.00
2017-11-27T12:49:48.210Z,1.90
2017-11-27T12:52:15.778Z,1.00
2017-11-27T12:54:43.245Z,1.90
2017-11-27T12:57:10.820Z,1.20
2017-11-27T12:59:39.047Z,1.07
2017-11-27T13:02:06.634Z,1.00
2017-11-27T13:04:34.086Z,0.87
2017-11-27T13:07:01.667Z,1.27
2017-11-27T13:09:29.104Z,0.90
2017-11-27T13:11:56.940Z,1.50
2017-11-27T13:14:24.599Z,0.97
2017-11-27T13:16:51.986Z,1.13
2017-11-27T13:19:20.186Z,0.90
2017-11-27T13:21:47.651Z,1.60
2017-11-27T13:24:15.155Z,0.90
2017-11-27T13:26:43.381Z,0.83
2017-11-27T13:29:10.831Z,0.80
2017-11-27T13:31:38.338Z,0.70
2017-11-27T13:34:05.884Z,0.90
2017-11-27T13:36:33.336Z,0.83
2017-11-27T13:39:00.808Z,0.67
2017-11-27T13:41:28.316Z,1.13
2017-11-27T13:43:56.689Z,0.90
2017-11-27T13:46:24.157Z,1.00
2017-11-27T13:48:51.608Z,1.60
2017-11-27T13:51:19.119Z,0.90
2017-11-27T13:53:47.328Z,1.70
2017-11-27T13:56:14.831Z,4.00
2017-11-27T13:58:43.166Z,1.00
2017-11-27T14:01:10.779Z,0.83
2017-11-27T14:03:39.087Z,1.83
2017-11-27T14:06:06.617Z,1.13
2017-11-27T14:08:34.853Z,1.03
2017-11-27T14:11:02.285Z,0.70
2017-11-27T14:13:29.870Z,1.00
2017-11-27T14:15:57.357Z,1.07
2017-11-27T14:18:24.896Z,0.90
2017-11-27T14:20:52.453Z,1.17
2017-11-27T14:23:37.867Z,1.50
2017-11-27T14:26:05.432Z,1.00
2017-11-27T14:28:33.646Z,1.50
2017-11-27T14:31:01.620Z,1.07
2017-11-27T14:33:29.089Z,1.37
2017-11-27T14:35:56.573Z,0.77
2017-11-27T14:38:24.826Z,1.30
2017-11-27T14:40:53.129Z,1.23
2017-11-27T14:43:20.576Z,2.03
2017-11-27T14:45:48.109Z,1.30
2017-11-27T14:48:17.067Z,1.70
2017-11-27T14:50:44.579Z,1.80
2017-11-27T14:53:12.911Z,2.03
2017-11-27T14:55:41.137Z,1.57
2017-11-27T14:58:09.420Z,1.53
2017-11-27T15:00:37.642Z,2.03
2017-11-27T15:03:05.234Z,1.90
2017-11-27T15:05:32.827Z,2.17
2017-11-27T15:08:01.064Z,2.57
2017-11-27T15:10:28.793Z,1.73
2017-11-27T15:12:56.305Z,2.27
2017-11-27T15:15:23.764Z,3.03
2017-11-27T15:17:51.285Z,2.50
2017-11-27T15:20:19.769Z,1.87
2017-11-27T15:22:47.249Z,2.60
2017-11-27T15:25:14.827Z,2.20
2017-11-27T15:27:43.039Z,2.53
2017-11-27T15:30:10.481Z,2.30
2017-11-27T15:32:37.933Z,4.43
2017-11-27T15:35:05.445Z,2.50
2017-11-27T15:37:33.673Z,2.87
2017-11-27T15:40:01.185Z,3.23
2017-11-27T15:42:28.650Z,2.97
2017-11-27T15:44:56.936Z,2.93
2017-11-27T15:47:25.197Z,2.50
2017-11-27T15:49:52.649Z,5.23
2017-11-27T15:52:20.118Z,2.87
2017-11-27T15:54:47.657Z,3.13
2017-11-27T15:57:15.063Z,2.27
2017-11-27T15:59:43.320Z,2.77
2017-11-27T16:02:10.830Z,4.10
2017-11-27T16:04:38.349Z,2.17
2017-11-27T16:07:05.950Z,2.57
2017-11-27T16:09:33.351Z,2.53
2017-11-27T16:12:01.374Z,2.17
2017-11-27T16:14:29.669Z,2.63
2017-11-27T16:16:57.237Z,2.73
2017-11-27T16:19:24.699Z,2.37
2017-11-27T16:21:52.149Z,2.37
2017-11-27T16:24:19.620Z,2.80
2017-11-27T16:26:47.097Z,2.50
2017-11-27T16:29:15.337Z,2.50
2017-11-27T16:31:42.831Z,2.27
2017-11-27T16:34:10.386Z,2.20
2017-11-27T16:36:37.849Z,2.80
2017-11-27T16:39:05.358Z,2.90
2017-11-27T16:41:32.812Z,2.40
2017-11-27T16:44:00.322Z,2.67
2017-11-27T16:46:28.556Z,2.47
2017-11-27T16:48:56.077Z,2.50
2017-11-27T16:51:24.335Z,2.60
2017-11-27T16:53:51.809Z,3.00
2017-11-27T16:56:20.086Z,2.83
2017-11-27T16:58:47.542Z,2.40
2017-11-27T17:01:16.081Z,2.10
2017-11-27T17:03:43.528Z,2.63
2017-11-27T17:06:11.011Z,2.40
2017-11-27T17:08:38.518Z,2.67
2017-11-27T17:11:05.961Z,2.87
2017-11-27T17:13:33.698Z,2.80
2017-11-27T17:16:01.913Z,3.13
2017-11-27T17:18:29.507Z,2.83
2017-11-27T17:20:57.023Z,2.67
2017-11-27T17:23:24.586Z,3.20
2017-11-27T17:25:52.757Z,3.40
2017-11-27T17:28:20.261Z,3.27
2017-11-27T17:30:47.727Z,3.20
2017-11-27T17:33:16.177Z,3.30
2017-11-27T17:35:43.740Z,4.13
2017-11-27T17:38:11.274Z,3.50
2017-11-27T17:40:38.725Z,8.07
2017-11-27T17:43:06.967Z,5.80
2017-11-27T17:45:34.448Z,5.77
2017-11-27T17:48:01.894Z,6.30
2017-11-27T17:50:29.484Z,7.43
2017-11-27T17:52:56.979Z,8.23
2017-11-27T17:55:24.508Z,5.37
2017-11-27T17:57:51.998Z,4.73
2017-11-27T18:00:19.443Z,5.30
2017-11-27T18:02:46.941Z,4.83
2017-11-27T18:05:14.521Z,5.27
2017-11-27T18:07:41.985Z,4.27
2017-11-27T18:10:10.967Z,5.53
2017-11-27T18:12:38.468Z,4.47
2017-11-27T18:15:06.733Z,5.07
2017-11-27T18:17:34.383Z,4.43
2017-11-27T18:20:01.813Z,4.87
2017-11-27T18:22:29.277Z,5.50
2017-11-27T18:24:56.773Z,4.73
2017-11-27T18:27:24.253Z,4.90
2017-11-27T18:29:51.723Z,5.37
2017-11-27T18:32:19.337Z,5.00
2017-11-27T18:34:46.796Z,5.37
2017-11-27T18:37:14.352Z,5.07
2017-11-27T18:39:41.859Z,10.07
2017-11-27T18:42:09.300Z,5.60
2017-11-27T18:44:36.841Z,5.97
2017-11-27T18:47:04.291Z,5.57
2017-11-27T18:49:31.755Z,6.50
2017-11-27T18:51:59.253Z,5.13
2017-11-27T18:54:26.750Z,6.87
2017-11-27T18:56:54.251Z,5.70
2017-11-27T18:59:22.529Z,4.37
2017-11-27T19:01:50.789Z,5.30
2017-11-27T19:04:18.342Z,4.60
2017-11-27T19:06:45.791Z,5.73
2017-11-27T19:09:13.297Z,4.83
2017-11-27T19:11:40.830Z,4.50
2017-11-27T19:14:08.290Z,4.30
2017-11-27T19:16:35.803Z,4.13
2017-11-27T19:19:04.019Z,4.80
2017-11-27T19:21:31.503Z,3.77
2017-11-27T19:23:58.997Z,3.60
2017-11-27T19:26:26.441Z,5.17
2017-11-27T19:28:53.940Z,5.07
2017-11-27T19:31:21.400Z,5.83
2017-11-27T19:33:49.666Z,4.30
2017-11-27T19:36:17.942Z,3.90
2017-11-27T19:38:46.749Z,4.37
2017-11-27T19:41:14.231Z,4.40
2017-11-27T19:43:41.680Z,7.03
2017-11-27T19:46:09.954Z,4.57
2017-11-27T19:48:38.222Z,4.70
2017-11-27T19:51:05.767Z,4.20
2017-11-27T19:53:33.593Z,4.57
2017-11-27T19:56:01.867Z,3.80
2017-11-27T19:58:30.084Z,7.10
2017-11-27T20:00:57.597Z,4.67
2017-11-27T20:03:25.889Z,4.37
2017-11-27T20:05:53.377Z,4.03
2017-11-27T20:08:20.985Z,4.80
2017-11-27T20:10:48.472Z,4.90
2017-11-27T20:13:15.968Z,4.73
2017-11-27T20:15:43.524Z,5.37
2017-11-27T20:18:11.057Z,7.20
2017-11-27T20:20:38.497Z,4.87
2017-11-27T20:23:06.058Z,4.43
2017-11-27T20:25:33.580Z,4.70
2017-11-27T20:28:01.042Z,4.77
2017-11-27T20:30:28.554Z,5.33
2017-11-27T20:32:56.016Z,5.13
2017-11-27T20:35:23.504Z,4.67
2017-11-27T20:37:51.746Z,4.67
2017-11-27T20:40:19.236Z,4.10
2017-11-27T20:42:47.512Z,5.00
2017-11-27T20:45:14.996Z,5.27
2017-11-27T20:47:43.244Z,7.47
2017-11-27T20:50:10.740Z,5.50
2017-11-27T20:52:38.942Z,4.60
2017-11-27T20:55:07.168Z,5.93
2017-11-27T20:57:34.618Z,4.87
2017-11-27T21:00:02.138Z,3.57
2017-11-27T21:02:29.591Z,4.47
2017-11-27T21:04:57.065Z,2.20
2017-11-27T21:07:24.556Z,3.40
2017-11-27T21:09:52.042Z,2.23
2017-11-27T21:12:19.493Z,3.33
2017-11-27T21:14:47.048Z,1.60
2017-11-27T21:17:14.556Z,1.80
2017-11-27T21:19:42.813Z,7.30
2017-11-27T21:22:10.273Z,2.30
2017-11-27T21:24:37.764Z,1.90
2017-11-27T21:27:06.014Z,2.10
2017-11-27T21:29:33.506Z,1.90
2017-11-27T21:32:01.791Z,1.90
2017-11-27T21:34:30.071Z,3.10
2017-11-27T21:36:58.307Z,2.97
2017-11-27T21:39:25.761Z,2.57
2017-11-27T21:41:53.261Z,2.30
2017-11-27T21:44:20.746Z,2.57
2017-11-27T21:46:48.250Z,5.10
2017-11-27T21:49:15.735Z,2.57
2017-11-27T21:51:43.225Z,2.67
2017-11-27T21:54:10.722Z,5.77
2017-11-27T21:56:38.211Z,3.97
2017-11-27T21:59:05.690Z,5.93
2017-11-27T22:01:33.160Z,4.10
2017-11-27T22:04:01.442Z,4.10
2017-11-27T22:06:28.943Z,4.37
2017-11-27T22:08:56.404Z,3.97
2017-11-27T22:11:24.669Z,4.87
2017-11-27T22:13:52.166Z,4.30
2017-11-27T22:16:19.636Z,3.00
2017-11-27T22:18:47.067Z,4.47
2017-11-27T22:21:14.617Z,3.00
2017-11-27T22:23:42.050Z,2.80
2017-11-27T22:26:09.665Z,2.30
2017-11-27T22:28:37.129Z,1.70
2017-11-27T22:31:04.607Z,1.97
2017-11-27T22:33:32.091Z,1.70
2017-11-27T22:35:59.633Z,1.77
2017-11-27T22:38:27.125Z,1.50
2017-11-27T22:40:54.590Z,1.90
2017-11-27T22:43:22.099Z,1.37
2017-11-27T22:45:49.684Z,1.70
2017-11-27T22:48:17.133Z,1.80
2017-11-27T22:50:44.600Z,2.00
2017-11-27T22:53:12.848Z,2.47
2017-11-27T22:55:41.059Z,2.27
2017-11-27T22:58:08.518Z,4.40
2017-11-27T23:00:35.999Z,5.07
2017-11-27T23:03:03.511Z,5.60
2017-11-27T23:05:30.967Z,3.93
2017-11-27T23:07:58.471Z,2.80
2017-11-27T23:10:25.945Z,3.30
2017-11-27T23:12:53.680Z,5.40
2017-11-27T23:15:21.895Z,2.77
2017-11-27T23:17:49.392Z,5.10
2017-11-27T23:20:16.860Z,2.70
2017-11-27T23:22:44.323Z,2.63
2017-11-27T23:25:11.824Z,2.47
2017-11-27T23:27:39.277Z,3.03
2017-11-27T23:30:06.760Z,3.30
2017-11-27T23:32:34.301Z,3.77
2017-11-27T23:35:01.772Z,3.77
2017-11-27T23:37:30.012Z,3.90
2017-11-27T23:39:57.504Z,4.20
2017-11-27T23:42:24.973Z,3.40
2017-11-27T23:44:53.254Z,5.63
2017-11-27T23:47:21.485Z,4.83
2017-11-27T23:49:48.958Z,4.20
2017-11-27T23:52:16.428Z,3.40
2017-11-27T23:54:43.928Z,5.47
2017-11-27T23:57:11.412Z,4.73
2017-11-27T23:59:38.878Z,3.13
